Pagrindinis puslapis
METAR-TAF:

METAR-TAF

Oro uostai :

Santjagas, Čilė

platuma: 33-27-23S, ilguma: 070-32-48W, Aukštis: 646 m

Dabartinis oras

Ataskaita buvo paskelbta 1 valandą ir 0 minutes, ne 16:00 UTC
Vėjas 4 kt iš Vakarų/Pietvakarių
Temperatūra 14°C
Drėgmė 63%
Slėgis 1021 hPa
Matomumas: 7000 m
Su prošvaistėmis ne aukštis 18000 ft

METAR: SCTB 091600Z 24004KT 7000 BKN180 14/07 Q1021

Laikas: 13:00 (17:00 UTC)


TAF: trūkstamas

Orai ataskaitas ir orų prognozės (METAR, TAF).

turimą stotys yra geltonos ir raudonos taškus žemėlapyje.

Perkelti pele per norėdami pamatyti stoties vardą.

Tada spustelėkite, norėdami matyti oro stebėjimo ir prognozės.

Norėdami pakeisti žemėlapį: spustelėkite ant žalios mygtukų su juodo kryžiaus žemyn,; žalią mygtuką su brūkšneliu, jei norite nutolinti; arba žalių rodyklių gretimoms žemėlapius.


METAR-TAF: